createdAt,value
2018-09-26T00:01:50.728Z,102204.95
2018-09-26T00:05:54.093Z,102210.59
2018-09-26T00:09:57.480Z,102204.80
2018-09-26T00:14:00.874Z,102205.60
2018-09-26T00:18:04.593Z,102211.95
2018-09-26T00:22:08.453Z,102215.48
2018-09-26T00:26:11.844Z,102209.84
2018-09-26T00:30:15.272Z,102216.41
2018-09-26T00:34:18.732Z,102208.45
2018-09-26T00:38:22.246Z,102214.59
2018-09-26T00:42:25.636Z,102215.09
2018-09-26T00:46:29.123Z,102206.72
2018-09-26T00:50:32.487Z,102200.41
2018-09-26T00:54:35.890Z,102204.69
2018-09-26T00:58:39.250Z,102199.27
2018-09-26T01:02:42.659Z,102195.98
2018-09-26T01:06:46.012Z,102204.83
2018-09-26T01:10:49.458Z,102196.23
2018-09-26T01:14:52.838Z,102196.98
2018-09-26T01:18:56.247Z,102197.80
2018-09-26T01:22:59.622Z,102199.10
2018-09-26T01:27:03.331Z,102194.53
2018-09-26T01:31:06.767Z,102189.20
2018-09-26T01:35:10.131Z,102187.24
2018-09-26T01:39:13.503Z,102190.41
2018-09-26T01:43:16.963Z,102194.37
2018-09-26T01:47:20.351Z,102205.23
2018-09-26T01:51:23.984Z,102197.70
2018-09-26T01:55:27.491Z,102192.97
2018-09-26T01:59:31.041Z,102197.97
2018-09-26T02:03:34.622Z,102201.39
2018-09-26T02:07:38.173Z,102192.80
2018-09-26T02:11:41.726Z,102197.39
2018-09-26T02:15:45.295Z,102196.33
2018-09-26T02:19:48.783Z,102190.48
2018-09-26T02:23:52.231Z,102181.65
2018-09-26T02:27:55.608Z,102181.89
2018-09-26T02:31:58.975Z,102183.53
2018-09-26T02:36:02.416Z,102187.38
2018-09-26T02:40:05.782Z,102183.19
2018-09-26T02:44:09.314Z,102180.72
2018-09-26T02:48:16.820Z,102176.52
2018-09-26T02:52:20.206Z,102177.42
2018-09-26T02:56:23.568Z,102182.81
2018-09-26T03:00:27.013Z,102184.69
2018-09-26T03:04:30.387Z,102175.58
2018-09-26T03:08:33.825Z,102183.58
2018-09-26T03:12:37.209Z,102182.42
2018-09-26T03:16:40.541Z,102198.78
2018-09-26T03:20:44.889Z,102179.77
2018-09-26T03:24:48.274Z,102171.43
2018-09-26T03:28:51.647Z,102165.65
2018-09-26T03:32:55.039Z,102172.94
2018-09-26T03:36:58.435Z,102179.80
2018-09-26T03:41:01.805Z,102173.17
2018-09-26T03:45:06.524Z,102178.55
2018-09-26T03:49:10.047Z,102163.96
2018-09-26T03:53:13.630Z,102160.88
2018-09-26T03:57:17.142Z,102168.21
2018-09-26T04:01:20.624Z,102155.03
2018-09-26T04:05:24.233Z,102161.99
2018-09-26T04:09:27.843Z,102172.98
2018-09-26T04:13:31.446Z,102168.39
2018-09-26T04:17:34.993Z,102174.37
2018-09-26T04:21:38.569Z,102173.67
2018-09-26T04:25:42.126Z,102172.03
2018-09-26T04:29:45.708Z,102165.97
2018-09-26T04:33:49.258Z,102173.21
2018-09-26T04:37:52.769Z,102175.81
2018-09-26T04:41:56.356Z,102180.56
2018-09-26T04:45:59.885Z,102175.88
2018-09-26T04:50:03.558Z,102182.65
2018-09-26T04:54:07.319Z,102181.76
2018-09-26T04:58:10.946Z,102188.10
2018-09-26T05:02:14.424Z,102178.21
2018-09-26T05:06:17.996Z,102190.42
2018-09-26T05:10:21.554Z,102187.07
2018-09-26T05:14:25.193Z,102178.58
2018-09-26T05:18:28.751Z,102176.89
2018-09-26T05:22:32.263Z,102178.58
2018-09-26T05:26:35.816Z,102177.45
2018-09-26T05:30:39.361Z,102168.81
2018-09-26T05:34:42.880Z,102163.58
2018-09-26T05:38:46.433Z,102152.98
2018-09-26T05:42:50.013Z,102147.41
2018-09-26T05:46:53.658Z,102141.77
2018-09-26T05:50:57.201Z,102131.25
2018-09-26T05:55:00.729Z,102140.87
2018-09-26T05:59:04.491Z,102137.78
2018-09-26T06:03:07.884Z,102127.25
2018-09-26T06:07:11.287Z,102129.30
2018-09-26T06:11:14.660Z,102130.85
2018-09-26T06:15:18.086Z,102126.30
2018-09-26T06:19:21.457Z,102132.43
2018-09-26T06:23:24.788Z,102137.58
2018-09-26T06:27:28.216Z,102139.72
2018-09-26T06:31:31.634Z,102145.61
2018-09-26T06:35:35.019Z,102141.77
2018-09-26T06:39:38.406Z,102140.64
2018-09-26T06:43:41.831Z,102135.81
2018-09-26T06:47:45.198Z,102133.94
2018-09-26T06:51:48.592Z,102138.95
2018-09-26T06:55:52.055Z,102135.69
2018-09-26T06:59:55.456Z,102137.83
2018-09-26T07:03:58.821Z,102136.75
2018-09-26T07:08:02.694Z,102140.43
2018-09-26T07:12:06.133Z,102160.08
2018-09-26T07:16:09.552Z,102175.38
2018-09-26T07:20:12.910Z,102186.58
2018-09-26T07:24:16.337Z,102187.53
2018-09-26T07:28:19.719Z,102178.27
2018-09-26T07:32:23.105Z,102186.55
2018-09-26T07:36:26.511Z,102187.98
2018-09-26T07:40:29.892Z,102187.27
2018-09-26T07:44:33.262Z,102187.25
2018-09-26T07:48:36.749Z,102194.18
2018-09-26T07:52:40.227Z,102201.23
2018-09-26T07:56:43.596Z,102197.92
2018-09-26T08:00:47.091Z,102194.16
2018-09-26T08:04:50.519Z,102198.83
2018-09-26T08:08:53.907Z,102193.27
2018-09-26T08:12:57.305Z,102198.23
2018-09-26T08:17:00.762Z,102191.81
2018-09-26T08:21:04.171Z,102183.09
2018-09-26T08:25:07.597Z,102170.42
2018-09-26T08:29:11.073Z,102169.53
2018-09-26T08:33:14.512Z,102151.23
2018-09-26T08:37:17.939Z,102141.44
2018-09-26T08:41:21.359Z,102128.02
2018-09-26T08:45:24.773Z,102127.20
2018-09-26T08:49:28.188Z,102120.54
2018-09-26T08:53:31.667Z,102115.94
2018-09-26T08:57:35.004Z,102132.43
2018-09-26T09:01:43.752Z,102128.34
2018-09-26T09:05:47.159Z,102126.98
2018-09-26T09:09:50.579Z,102108.15
2018-09-26T09:13:54.139Z,102109.98
2018-09-26T09:17:57.556Z,102101.67
2018-09-26T09:22:01.064Z,102093.34
2018-09-26T09:26:04.906Z,102077.05
2018-09-26T09:30:08.348Z,102063.53
2018-09-26T09:34:11.768Z,102060.77
2018-09-26T09:38:15.204Z,102058.95
2018-09-26T09:42:18.561Z,102065.47
2018-09-26T09:46:21.975Z,102067.18
2018-09-26T09:50:25.443Z,102067.95
2018-09-26T09:54:29.273Z,102058.03
2018-09-26T09:58:32.693Z,102049.61
2018-09-26T10:02:36.158Z,102049.39
2018-09-26T10:06:39.632Z,102046.56
2018-09-26T10:10:43.012Z,102043.77
2018-09-26T10:14:46.367Z,102032.66
2018-09-26T10:18:49.791Z,102032.86
2018-09-26T10:22:53.200Z,102042.77
2018-09-26T10:26:57.075Z,102050.28
2018-09-26T10:31:00.585Z,102056.63
2018-09-26T10:35:04.168Z,102047.03
2018-09-26T10:39:08.459Z,102048.03
2018-09-26T10:43:11.868Z,102027.56
2018-09-26T10:47:15.259Z,102018.64
2018-09-26T10:51:18.659Z,102014.36
2018-09-26T10:55:22.044Z,102013.95
2018-09-26T10:59:25.484Z,101998.92
2018-09-26T11:03:28.884Z,101990.66
2018-09-26T11:07:32.292Z,101972.75
2018-09-26T11:11:35.691Z,101962.70
2018-09-26T11:15:39.052Z,101938.97
2018-09-26T11:19:42.487Z,101926.34
2018-09-26T11:23:45.909Z,101902.53
2018-09-26T11:27:49.292Z,101906.13
2018-09-26T11:31:52.661Z,101902.51
2018-09-26T11:35:56.067Z,101901.70
2018-09-26T11:39:59.551Z,101898.77
2018-09-26T11:44:04.245Z,101897.09
2018-09-26T11:48:07.604Z,101900.34
2018-09-26T11:52:11.124Z,101892.92
2018-09-26T11:56:14.857Z,101887.29
2018-09-26T12:00:18.231Z,101873.21
2018-09-26T12:04:21.625Z,101868.38
2018-09-26T12:08:25.139Z,101853.84
2018-09-26T12:12:28.530Z,101862.26
2018-09-26T12:16:31.975Z,101846.74
2018-09-26T12:20:35.347Z,101841.05
2018-09-26T12:24:38.911Z,101836.20
2018-09-26T12:28:42.493Z,101832.27
2018-09-26T12:32:46.054Z,101838.50
2018-09-26T12:36:49.807Z,101833.75
2018-09-26T12:40:53.344Z,101832.58
2018-09-26T12:44:56.699Z,101827.70
2018-09-26T12:49:00.114Z,101821.00
2018-09-26T12:53:03.559Z,101810.75
2018-09-26T12:57:07.000Z,101807.31
2018-09-26T13:01:10.465Z,101800.23
2018-09-26T13:05:13.930Z,101793.47
2018-09-26T13:09:17.391Z,101787.33
2018-09-26T13:13:20.892Z,101767.85
2018-09-26T13:17:24.312Z,101756.77
2018-09-26T13:21:27.691Z,101753.30
2018-09-26T13:25:31.159Z,101748.37
2018-09-26T13:29:34.454Z,101739.02
2018-09-26T13:33:37.871Z,101725.66
2018-09-26T13:37:41.306Z,101716.86
2018-09-26T13:41:44.715Z,101710.68
2018-09-26T13:45:48.157Z,101705.36
2018-09-26T13:49:51.513Z,101684.09
2018-09-26T13:53:54.900Z,101694.19
2018-09-26T13:57:58.289Z,101690.16
2018-09-26T14:02:01.714Z,101684.05
2018-09-26T14:06:05.411Z,101674.78
2018-09-26T14:10:09.034Z,101655.73
2018-09-26T14:14:12.528Z,101656.59
2018-09-26T14:18:15.907Z,101656.03
2018-09-26T14:22:19.345Z,101656.42
2018-09-26T14:26:22.838Z,101644.84
2018-09-26T14:30:26.227Z,101637.30
2018-09-26T14:34:29.591Z,101634.20
2018-09-26T14:38:32.960Z,101632.80
2018-09-26T14:42:36.379Z,101628.78
2018-09-26T14:46:39.928Z,101626.92
2018-09-26T14:50:43.375Z,101615.36
2018-09-26T14:54:46.814Z,101610.48
2018-09-26T14:58:50.292Z,101616.64
2018-09-26T15:02:53.692Z,101597.55
2018-09-26T15:06:57.080Z,101586.88
2018-09-26T15:11:00.444Z,101589.47
2018-09-26T15:15:04.471Z,101594.31
2018-09-26T15:19:08.115Z,101593.81
2018-09-26T15:23:11.563Z,101584.46
2018-09-26T15:27:14.904Z,101582.25
2018-09-26T15:31:18.287Z,101578.66
2018-09-26T15:35:21.914Z,101568.89
2018-09-26T15:39:25.380Z,101573.31
2018-09-26T15:43:28.784Z,101575.02
2018-09-26T15:47:32.162Z,101581.19
2018-09-26T15:51:35.816Z,101579.42
2018-09-26T15:55:39.466Z,101571.84
2018-09-26T15:59:43.174Z,101566.94
2018-09-26T16:03:47.060Z,101574.34
2018-09-26T16:07:50.423Z,101577.80
2018-09-26T16:11:53.822Z,101566.73
2018-09-26T16:15:57.215Z,101560.46
2018-09-26T16:20:00.663Z,101552.00
2018-09-26T16:24:04.061Z,101548.83
2018-09-26T16:28:07.616Z,101539.48
2018-09-26T16:32:11.033Z,101534.53
2018-09-26T16:36:14.425Z,101529.11
2018-09-26T16:40:17.840Z,101529.00
2018-09-26T16:44:21.237Z,101520.44
2018-09-26T16:48:24.759Z,101531.39
2018-09-26T16:52:27.984Z,101544.55
2018-09-26T16:56:31.427Z,101544.94
2018-09-26T17:00:34.827Z,101549.69
2018-09-26T17:04:38.319Z,101552.65
2018-09-26T17:08:41.722Z,101557.81
2018-09-26T17:12:45.277Z,101560.82
2018-09-26T17:16:48.774Z,101562.58
2018-09-26T17:20:52.175Z,101550.64
2018-09-26T17:24:55.564Z,101542.54
2018-09-26T17:28:59.184Z,101541.98
2018-09-26T17:33:03.097Z,101543.51
2018-09-26T17:37:06.607Z,101548.11
2018-09-26T17:41:10.043Z,101544.95
2018-09-26T17:45:13.399Z,101545.75
2018-09-26T17:49:16.817Z,101537.25
2018-09-26T17:53:20.219Z,101537.98
2018-09-26T17:57:24.685Z,101546.23
2018-09-26T18:01:28.134Z,101551.81
2018-09-26T18:05:31.520Z,101545.95
2018-09-26T18:09:34.992Z,101536.52
2018-09-26T18:13:38.417Z,101537.20
2018-09-26T18:17:41.924Z,101523.73
2018-09-26T18:21:45.293Z,101519.59
2018-09-26T18:25:48.872Z,101525.26
2018-09-26T18:29:52.282Z,101539.80
2018-09-26T18:33:55.819Z,101542.78
2018-09-26T18:37:59.212Z,101543.55
2018-09-26T18:42:04.224Z,101545.17
2018-09-26T18:46:07.972Z,101533.09
2018-09-26T18:50:11.492Z,101541.31
2018-09-26T18:54:14.865Z,101545.09
2018-09-26T18:58:18.373Z,101544.45
2018-09-26T19:02:21.815Z,101538.65
2018-09-26T19:06:25.584Z,101542.53
2018-09-26T19:10:28.966Z,101534.09
2018-09-26T19:14:32.439Z,101540.97
2018-09-26T19:18:35.855Z,101541.73
2018-09-26T19:22:40.023Z,101537.21
2018-09-26T19:26:44.387Z,101546.38
2018-09-26T19:30:47.815Z,101551.05
2018-09-26T19:34:51.284Z,101548.67
2018-09-26T19:38:54.882Z,101545.95
2018-09-26T19:42:58.368Z,101548.51
2018-09-26T19:47:01.736Z,101540.42
2018-09-26T19:51:05.226Z,101537.64
2018-09-26T19:55:08.583Z,101533.16
2018-09-26T19:59:12.073Z,101540.98
2018-09-26T20:03:15.676Z,101542.48
2018-09-26T20:07:19.196Z,101529.55
2018-09-26T20:11:22.782Z,101528.58
2018-09-26T20:15:26.344Z,101530.64
2018-09-26T20:19:29.840Z,101531.03
2018-09-26T20:23:33.501Z,101524.83
2018-09-26T20:27:37.058Z,101526.06
2018-09-26T20:31:40.579Z,101536.39
2018-09-26T20:35:44.153Z,101531.66
2018-09-26T20:39:47.663Z,101539.88
2018-09-26T20:43:51.287Z,101533.14
2018-09-26T20:47:54.864Z,101533.53
2018-09-26T20:51:58.603Z,101529.14
2018-09-26T20:56:03.795Z,101522.55
2018-09-26T21:00:07.264Z,101530.89
2018-09-26T21:04:10.651Z,101530.41
2018-09-26T21:08:14.101Z,101532.55
2018-09-26T21:12:17.524Z,101538.61
2018-09-26T21:16:20.960Z,101538.50
2018-09-26T21:20:24.386Z,101536.61
2018-09-26T21:24:27.792Z,101535.24
2018-09-26T21:28:31.187Z,101535.67
2018-09-26T21:32:34.704Z,101526.26
2018-09-26T21:36:38.089Z,101527.08
2018-09-26T21:40:41.535Z,101528.73
2018-09-26T21:44:44.942Z,101529.08
2018-09-26T21:48:48.315Z,101526.77
2018-09-26T21:52:51.773Z,101520.92
2018-09-26T21:56:55.205Z,101529.11
2018-09-26T22:01:05.504Z,101523.83
2018-09-26T22:05:08.927Z,101522.75
2018-09-26T22:09:12.319Z,101521.23
2018-09-26T22:13:15.723Z,101508.34
2018-09-26T22:17:19.111Z,101506.04
2018-09-26T22:21:22.490Z,101523.97
2018-09-26T22:25:25.895Z,101512.80
2018-09-26T22:29:29.280Z,101505.56
2018-09-26T22:33:32.682Z,101498.48
2018-09-26T22:37:36.198Z,101499.64
2018-09-26T22:41:39.737Z,101495.53
2018-09-26T22:45:43.112Z,101497.23
2018-09-26T22:49:46.516Z,101483.41
2018-09-26T22:53:49.922Z,101487.58
2018-09-26T22:57:53.331Z,101488.39
2018-09-26T23:01:56.688Z,101498.81
2018-09-26T23:06:00.060Z,101497.39
2018-09-26T23:10:03.449Z,101498.16
2018-09-26T23:14:06.837Z,101498.05
2018-09-26T23:18:10.246Z,101502.75
2018-09-26T23:22:13.616Z,101501.81
2018-09-26T23:26:16.983Z,101499.17
2018-09-26T23:30:20.593Z,101502.88
2018-09-26T23:34:24.080Z,101508.28
2018-09-26T23:38:27.456Z,101502.92
2018-09-26T23:42:30.911Z,101502.61
2018-09-26T23:46:34.491Z,101505.77
2018-09-26T23:50:37.863Z,101503.40
2018-09-26T23:54:41.312Z,101495.05
2018-09-26T23:58:44.695Z,101501.14
